Dyess Air Force Base
KDYS : now visible

Airfield :











YOU CAN JOIN US ON...

 
LOGIN :

Register | Disclaimer

   EN    FR    IT 

 









Legend :    VFR   Marginal VFR   IFR   Intensive IFR   Very Intensive IFR
Visi :
Ceiling :
>= 8 km
>= 3000ft
5 to 8 km
1000 to 3000 ft
1500m to 5 km
500 to 1000 ft
800 to 1500m
200 to 500 ft
< 800m
< 200 ft
Symbols :   Thunderstorms  Fog  Heavy snow  Heavy precipitations  Wind > 20 kt






- Airport Elevation : 1789 ft


KDYS - Dyess Air Force Base

CURRENT METAR :
  • 281156Z AUTO 30010KT 10SM BKN140 15/M03 A2983 RMK AO2 SLP072 60004 70004 T01481031 10224 20148 52037

EXPIRED METARs :
  • 281056Z AUTO 29010G18KT 10SM CLR 16/M02 A2980 RMK AO2 SLP057 T01631023
  • 280956Z AUTO 27011KT 10SM CLR 19/M01 A2976 RMK AO2 PK WND 29030/15 RAB00E32 SLP039 P0004 T01911009

TAF AMD TAF KDYS
Valid from the 28 at 12:00 until the 29 at 18:00 UTC


281230Z 2812/2918 28012KT 9999 BKN140 QNH2980INS
BECMG 2815/2816 29015G25KT 9999 FEW140 QNH2984INS
BECMG 2822/2823 27015G20KT 9999 SKC QNH2983INS
BECMG 2900/2901 27009KT 9999 SKC QNH2986INS TX23/2822Z TN07/2912Z LAST NO AMDS AFT 2812 NEXT 2816



MET'MAP, your aeronautical weather chart ! - Copyright ORBIFLY December 2007 - Disclaimer

ORBIFLY MET'MAP TEAM :

Programming & Development : Alexandra Zaïnal
Concept & original design : Baudouin d'Aumeries
Assistance for programming : Marc-Olivier Méhu
Technical & hardware support : Manuel Goepfert

Contact : metmap@orbifly.com




SOURCES & CREDITS :

   NOAA       Earth
Advisory